Time;durP1;ratioP1;P1;durP2;ratioP2;P2;SDS_P1;SDS_P2;PMS_P1;PMS_P2;Temp;Humidity;BMP_temperature;BMP_pressure;BME280_temperature;BME280_humidity;BME280_pressure;Samples;Min_cycle;Max_cycle;Signal;HPM_P1;HPM_P2
2022/06/15 04:56:21;;;;;;;18.38;5.90;;;;;;;17.00;55.57;95637.72;6082924;22;2826667;-84
2022/06/15 04:58:48;;;;;;;8.82;4.20;;;;;;;16.42;54.99;95563.44;6192543;23;20043;-83
2022/06/15 05:01:15;;;;;;;11.30;4.45;;;;;;;16.76;55.53;95653.25;6203586;23;20020;-83
2022/06/15 05:03:41;;;;;;;12.05;5.03;;;;;;;16.70;55.57;95631.16;6207066;23;20509;-84
2022/06/15 05:06:10;;;;;;;7.93;4.35;;;;;;;16.77;55.03;95649.50;6205513;23;20012;-84
2022/06/15 05:08:36;;;;;;;14.50;4.35;;;;;;;16.82;54.98;95644.00;6209625;23;20005;-83
2022/06/15 05:11:01;;;;;;;9.90;4.20;;;;;;;15.94;54.45;95527.53;6204942;23;20012;-83
2022/06/15 05:13:27;;;;;;;11.35;3.47;;;;;;;16.66;53.85;95656.94;6201939;23;20008;-84
2022/06/15 05:15:53;;;;;;;12.73;4.47;;;;;;;16.36;54.88;95620.84;6204730;23;20009;-83
2022/06/15 05:18:18;;;;;;;15.75;4.00;;;;;;;16.72;55.10;95666.44;6203053;23;20019;-84
2022/06/15 05:20:44;;;;;;;11.30;4.10;;;;;;;15.92;55.00;95533.19;6203675;23;20016;-84
2022/06/15 05:23:14;;;;;;;17.02;4.20;;;;;;;15.93;54.81;95558.84;6204034;23;20005;-83
2022/06/15 05:25:40;;;;;;;18.53;4.30;;;;;;;16.36;55.46;95585.25;6206013;23;20315;-84
2022/06/15 05:28:06;;;;;;;11.45;4.13;;;;;;;16.15;55.50;95545.53;6204422;23;20009;-83
2022/06/15 05:30:32;;;;;;;7.20;3.08;;;;;;;16.95;54.77;95668.09;6203421;23;20008;-83
2022/06/15 05:32:57;;;;;;;12.23;3.60;;;;;;;16.86;54.77;95658.41;6201128;23;20016;-83
2022/06/15 05:35:23;;;;;;;8.30;3.85;;;;;;;16.09;54.56;95525.34;6201310;23;20016;-82
2022/06/15 05:37:48;;;;;;;11.68;4.50;;;;;;;16.18;54.21;95528.09;6206098;23;20013;-83
2022/06/15 05:40:14;;;;;;;13.98;3.65;;;;;;;16.88;53.37;95646.28;6203610;23;20066;-84
2022/06/15 05:42:39;;;;;;;11.07;4.00;;;;;;;17.24;53.18;95672.28;6198205;23;20044;-84
2022/06/15 05:45:06;;;;;;;12.48;4.10;;;;;;;16.47;52.98;95559.88;6198064;23;20068;-83
2022/06/15 05:47:31;;;;;;;8.23;3.58;;;;;;;17.14;51.90;95648.41;6200822;23;20039;-83
2022/06/15 05:49:58;;;;;;;11.35;3.35;;;;;;;17.03;51.50;95634.44;6203348;23;20043;-84
2022/06/15 05:52:24;;;;;;;12.05;4.35;;;;;;;16.78;52.44;95573.41;6198971;23;20140;-84
2022/06/15 05:54:49;;;;;;;7.00;3.03;;;;;;;16.69;50.97;95565.28;6199554;23;20131;-83
2022/06/15 05:57:18;;;;;;;7.05;3.10;;;;;;;17.16;51.71;95628.25;6194644;23;20087;-85
2022/06/15 05:59:44;;;;;;;8.30;3.15;;;;;;;16.66;51.20;95547.16;6200752;23;20043;-84
2022/06/15 06:02:11;;;;;;;8.88;3.55;;;;;;;17.03;50.82;95601.47;6200180;23;20454;-84
2022/06/15 06:04:36;;;;;;;6.28;2.85;;;;;;;17.24;50.94;95630.16;6198886;23;20105;-84
2022/06/15 06:07:02;;;;;;;12.05;3.78;;;;;;;16.86;51.58;95546.66;6196552;23;20008;-84
2022/06/15 06:09:28;;;;;;;11.57;4.13;;;;;;;16.48;50.45;95479.22;6195280;23;20491;-84
2022/06/15 06:11:54;;;;;;;14.02;4.55;;;;;;;17.61;50.77;95658.56;6198993;23;20080;-84
2022/06/15 06:14:20;;;;;;;12.35;3.53;;;;;;;17.53;48.62;95640.50;6201265;23;20392;-84
2022/06/15 06:16:49;;;;;;;9.80;3.45;;;;;;;17.83;50.02;95681.09;6196704;23;20162;-83
2022/06/15 06:19:15;;;;;;;11.00;4.15;;;;;;;17.38;50.24;95605.22;6198486;23;20360;-83
2022/06/15 06:21:43;;;;;;;11.05;3.35;;;;;;;17.85;49.34;95670.84;6199419;23;20023;-83
2022/06/15 06:24:09;;;;;;;13.20;3.17;;;;;;;17.70;48.03;95654.00;6197823;23;20012;-84
2022/06/15 06:26:35;;;;;;;5.85;2.97;;;;;;;17.71;48.89;95654.81;6225218;23;20032;-82
2022/06/15 06:29:00;;;;;;;7.50;3.22;;;;;;;17.65;49.98;95607.75;6198924;23;20004;-84
2022/06/15 06:31:27;;;;;;;8.35;3.15;;;;;;;18.11;49.39;95677.94;6198793;23;20073;-83
2022/06/15 06:33:53;;;;;;;9.50;3.45;;;;;;;17.54;48.97;95595.69;6196777;23;20123;-83
2022/06/15 06:36:31;;;;;;;8.23;3.58;;;;;;;18.05;48.83;95686.41;6202259;23;20450;-83
2022/06/15 06:39:00;;;;;;;5.45;3.25;;;;;;;18.07;49.32;95679.66;6202852;23;20031;-83
2022/06/15 06:41:27;;;;;;;9.45;3.85;;;;;;;18.13;48.96;95675.72;6203180;23;20024;-83
2022/06/15 06:43:53;;;;;;;13.52;4.75;;;;;;;17.71;48.09;95612.69;6203097;23;20011;-84
2022/06/15 06:46:19;;;;;;;12.95;4.35;;;;;;;17.80;48.46;95630.72;6201946;23;20801;-84
2022/06/15 06:48:44;;;;;;;7.95;3.28;;;;;;;18.00;48.66;95668.53;6229747;23;20012;-83
2022/06/15 06:51:10;;;;;;;14.20;4.32;;;;;;;18.24;48.43;95678.13;6203191;23;20015;-84
2022/06/15 06:53:36;;;;;;;9.40;3.42;;;;;;;18.16;48.07;95658.19;6204421;23;20028;-84
2022/06/15 06:56:07;;;;;;;14.05;3.50;;;;;;;17.72;48.40;95600.88;6202012;23;20016;-84
2022/06/15 06:58:33;;;;;;;13.55;4.22;;;;;;;18.26;48.33;95689.34;6201203;23;20277;-83
2022/06/15 07:00:59;;;;;;;10.73;3.70;;;;;;;18.17;47.75;95681.25;6200251;23;20026;-85
2022/06/15 07:03:25;;;;;;;10.55;3.17;;;;;;;18.08;47.69;95667.78;6201093;23;20088;-85
2022/06/15 07:05:51;;;;;;;8.65;3.35;;;;;;;17.80;48.38;95617.31;6206051;23;20406;-83
2022/06/15 07:08:17;;;;;;;9.55;3.30;;;;;;;18.31;48.14;95684.63;6202218;23;20022;-84
2022/06/15 07:10:43;;;;;;;7.78;2.60;;;;;;;18.29;47.43;95686.84;6203454;23;20016;-83
2022/06/15 07:13:09;;;;;;;8.32;3.42;;;;;;;18.20;47.36;95669.91;6202067;23;20068;-83
2022/06/15 07:15:35;;;;;;;9.18;3.78;;;;;;;18.10;47.64;95643.34;6201660;23;20044;-83
2022/06/15 07:18:01;;;;;;;8.05;3.03;;;;;;;18.06;48.00;95635.13;6202381;23;20196;-83
2022/06/15 07:20:29;;;;;;;8.50;3.20;;;;;;;18.48;48.47;95681.22;6203330;23;20095;-84
2022/06/15 07:22:55;;;;;;;6.05;3.33;;;;;;;18.24;48.95;95644.03;6203779;23;20403;-84
2022/06/15 07:25:21;;;;;;;8.73;3.38;;;;;;;18.41;48.55;95665.56;6201030;23;20009;-84
2022/06/15 07:27:47;;;;;;;5.60;2.78;;;;;;;18.69;48.38;95689.56;6202048;23;20013;-84
2022/06/15 07:30:17;;;;;;;9.00;3.55;;;;;;;18.52;47.81;95645.41;6204504;23;20573;-85
2022/06/15 07:32:44;;;;;;;9.93;4.28;;;;;;;18.26;47.84;95595.41;6199412;23;20522;-84
2022/06/15 07:35:16;;;;;;;3.10;2.42;;;;;;;18.41;45.87;95641.41;6201963;23;20027;-84
2022/06/15 07:37:42;;;;;;;8.45;3.10;;;;;;;18.69;46.67;95684.94;6203944;23;20074;-83
2022/06/15 07:40:08;;;;;;;13.10;3.55;;;;;;;18.47;48.29;95647.41;6204805;23;20008;-83
2022/06/15 07:42:34;;;;;;;11.88;3.00;;;;;;;17.68;47.66;95495.31;6200059;23;20070;-85
2022/06/15 07:44:59;;;;;;;4.60;2.63;;;;;;;18.85;47.37;95675.34;6202601;23;20016;-84
2022/06/15 07:50:09;;;;;;;13.65;3.45;;;;;;;18.63;46.12;95647.81;6202375;23;20024;-84
2022/06/15 07:52:40;;;;;;;8.85;2.70;;;;;;;18.40;45.85;95593.38;6199727;23;20115;-84
2022/06/15 07:55:09;;;;;;;7.47;3.05;;;;;;;19.03;45.49;95684.25;6197789;23;20014;-84
2022/06/15 07:57:35;;;;;;;12.93;3.40;;;;;;;18.96;45.42;95693.88;6198643;23;20028;-84
2022/06/15 08:00:03;;;;;;;10.73;2.95;;;;;;;18.63;45.33;95653.19;6200662;23;20043;-83
2022/06/15 08:02:28;;;;;;;6.00;2.70;;;;;;;18.57;45.24;95638.31;6196356;23;20004;-83
2022/06/15 08:04:53;;;;;;;6.80;2.33;;;;;;;18.72;43.60;95662.84;6204381;23;20340;-83
2022/06/15 08:07:19;;;;;;;9.73;2.95;;;;;;;18.64;46.20;95655.56;6198654;23;20012;-84
2022/06/15 08:09:45;;;;;;;11.23;2.90;;;;;;;19.01;45.27;95697.19;6206349;23;20019;-83
2022/06/15 08:12:11;;;;;;;8.65;2.67;;;;;;;18.90;46.19;95647.56;6202643;23;20020;-84
2022/06/15 08:14:43;;;;;;;8.90;2.90;;;;;;;18.90;45.76;95639.50;6203020;23;20015;-84
2022/06/15 08:17:14;;;;;;;12.02;2.97;;;;;;;19.27;46.31;95689.97;6202728;23;20009;-84
2022/06/15 08:19:44;;;;;;;4.65;2.40;;;;;;;18.66;46.21;95606.91;6204864;23;20004;-83
2022/06/15 08:22:10;;;;;;;7.97;3.13;;;;;;;18.91;46.21;95592.72;6229729;23;20055;-84
2022/06/15 08:24:37;;;;;;;10.80;2.92;;;;;;;19.05;45.08;95628.28;6204077;23;20123;-84
2022/06/15 08:27:05;;;;;;;10.65;2.58;;;;;;;18.69;44.89;95572.13;6202482;23;20238;-84
2022/06/15 08:29:32;;;;;;;7.30;2.55;;;;;;;19.35;44.37;95660.69;6202828;23;20009;-84
2022/06/15 08:31:58;;;;;;;5.68;2.53;;;;;;;19.00;45.36;95595.38;6201246;23;20024;-84
2022/06/15 08:34:25;;;;;;;7.70;2.53;;;;;;;19.09;45.33;95614.97;6225959;23;20048;-83
2022/06/15 08:36:50;;;;;;;6.90;2.30;;;;;;;19.47;44.69;95677.81;6201607;23;20221;-84
2022/06/15 08:39:16;;;;;;;10.15;2.42;;;;;;;19.38;43.58;95646.59;6200559;23;20083;-83
2022/06/15 08:42:05;;;;;;;9.82;2.85;;;;;;;19.70;43.61;95689.19;6225782;23;20031;-84
2022/06/15 08:45:06;;;;;;;10.00;2.97;;;;;;;19.70;43.57;95689.19;6199661;23;20015;-83
2022/06/15 08:47:50;;;;;;;6.70;2.72;;;;;;;19.74;43.83;95683.97;6199014;23;20423;-82
2022/06/15 08:50:28;;;;;;;9.48;2.95;;;;;;;19.77;42.26;95692.16;6197414;23;20008;-82
2022/06/15 08:53:17;;;;;;;10.00;2.78;;;;;;;19.42;41.78;95631.44;6195578;23;20072;-82
2022/06/15 08:56:00;;;;;;;5.95;2.65;;;;;;;19.78;41.82;95688.38;6195748;23;20058;-83
2022/06/15 08:58:42;;;;;;;7.18;2.47;;;;;;;19.30;43.04;95607.09;6227118;23;20020;-83
2022/06/15 09:01:18;;;;;;;9.23;2.50;;;;;;;19.68;43.46;95655.66;6198683;23;20024;-83
2022/06/15 09:03:54;;;;;;;10.15;2.45;;;;;;;19.50;42.49;95609.94;6200371;23;20083;-84
2022/06/15 09:06:29;;;;;;;8.50;2.50;;;;;;;20.04;43.01;95675.66;6197099;23;20119;-83
2022/06/15 09:09:01;;;;;;;10.65;2.22;;;;;;;20.03;42.30;95676.78;6196605;23;20024;-84
2022/06/15 09:11:29;;;;;;;13.48;2.67;;;;;;;20.01;42.15;95679.00;6199068;23;20012;-84
2022/06/15 09:14:33;;;;;;;3.95;2.65;;;;;;;19.68;41.19;95626.03;6198696;23;20519;-84
2022/06/15 09:17:10;;;;;;;8.27;3.00;;;;;;;19.82;42.82;95640.88;6198955;23;20020;-85
2022/06/15 09:19:42;;;;;;;6.35;2.53;;;;;;;19.19;41.20;95521.38;6199859;23;20343;-84
2022/06/15 09:22:10;;;;;;;;;;;;;;;20.33;42.08;95677.66;6200948;23;20100;-84
2022/06/15 09:24:48;;;;;;;5.78;2.67;;;;;;;20.36;40.93;95681.63;6202430;23;19990;-83
2022/06/15 09:27:36;;;;;;;8.63;2.58;;;;;;;19.74;42.17;95593.25;6203539;23;20082;-84
2022/06/15 09:30:11;;;;;;;5.75;2.92;;;;;;;20.33;42.95;95682.22;6202869;23;20005;-84
2022/06/15 09:32:46;;;;;;;9.68;2.65;;;;;;;20.49;42.20;95690.59;6201424;23;20017;-83
2022/06/15 09:35:26;;;;;;;6.57;2.83;;;;;;;20.51;42.25;95674.91;6205352;23;20092;-84
2022/06/15 09:38:10;;;;;;;13.75;3.05;;;;;;;20.64;42.78;95690.84;6203962;23;20301;-83
2022/06/15 09:40:50;;;;;;;6.30;2.70;;;;;;;19.82;41.75;95535.94;6202979;23;20012;-83
2022/06/15 09:43:21;;;;;;;5.95;2.85;;;;;;;20.88;41.99;95684.84;6194200;23;20008;-83
2022/06/15 09:45:59;;;;;;;12.45;2.50;;;;;;;20.58;41.15;95514.28;6202358;23;20091;-83
2022/06/15 09:48:37;;;;;;;5.72;2.60;;;;;;;22.28;38.93;95676.03;6227842;23;20095;-83
2022/06/15 09:51:18;;;;;;;10.27;2.83;;;;;;;23.14;36.12;95679.56;6204533;23;20035;-83
2022/06/15 09:54:03;;;;;;;4.72;2.20;;;;;;;24.15;34.86;95666.56;6203273;23;20013;-84
2022/06/15 09:56:29;;;;;;;3.83;2.50;;;;;;;24.17;34.25;95564.84;6186416;23;20498;-84
2022/06/15 09:59:03;;;;;;;7.85;2.88;;;;;;;25.06;33.23;95667.28;6200433;23;20331;-84
2022/06/15 10:01:36;;;;;;;8.02;2.40;;;;;;;25.31;31.66;95608.09;6204503;23;20019;-84
2022/06/15 10:04:05;;;;;;;6.35;2.08;;;;;;;25.86;31.02;95638.69;6199304;23;20012;-85
2022/06/15 10:06:45;;;;;;;8.48;2.20;;;;;;;26.80;30.06;95610.75;6201887;23;20497;-84
2022/06/15 10:09:15;;;;;;;6.07;2.28;;;;;;;27.20;30.10;95670.09;6202083;23;20245;-84
2022/06/15 10:11:49;;;;;;;6.00;1.98;;;;;;;27.39;29.36;95612.00;6201835;23;20008;-84
2022/06/15 10:14:32;;;;;;;5.90;2.53;;;;;;;28.05;28.46;95660.25;6208826;23;20034;-84
2022/06/15 10:17:18;;;;;;;11.32;2.78;;;;;;;28.64;28.31;95645.63;6203971;23;20079;-84
2022/06/15 10:19:48;;;;;;;8.30;2.35;;;;;;;28.69;26.45;95630.84;6204507;23;20012;-84
2022/06/15 10:22:26;;;;;;;7.80;2.00;;;;;;;28.25;27.11;95566.22;6204036;23;20022;-83
2022/06/15 10:24:53;;;;;;;7.88;1.98;;;;;;;29.25;26.27;95646.84;6208302;23;20013;-84
2022/06/15 10:27:25;;;;;;;14.07;2.75;;;;;;;29.36;27.14;95660.63;6203753;23;20012;-84
2022/06/15 10:30:11;;;;;;;5.50;2.22;;;;;;;29.41;26.75;95662.97;6202209;23;20015;-84
2022/06/15 10:32:57;;;;;;;7.30;1.90;;;;;;;28.84;26.59;95659.84;6201378;23;20054;-84
2022/06/15 10:35:24;;;;;;;4.78;2.15;;;;;;;28.61;27.26;95657.28;6201208;23;20008;-84
2022/06/15 10:37:56;;;;;;;3.10;1.80;;;;;;;28.63;26.37;95603.13;6199617;23;20008;-84
2022/06/15 10:40:29;;;;;;;6.70;2.08;;;;;;;28.69;26.58;95559.88;6198795;23;20019;-84
2022/06/15 10:43:07;;;;;;;7.97;3.08;;;;;;;29.75;26.86;95647.88;6200406;23;20508;-83
2022/06/15 10:45:36;;;;;;;5.40;2.30;;;;;;;30.09;26.72;95636.69;6200262;23;20012;-83
2022/06/15 10:48:14;;;;;;;12.68;2.60;;;;;;;29.88;26.81;95588.97;6203082;23;20058;-83
2022/06/15 10:50:39;;;;;;;6.75;2.50;;;;;;;30.06;28.73;95608.16;6199334;23;20019;-83
2022/06/15 10:53:23;;;;;;;7.43;2.13;;;;;;;29.59;27.50;95579.13;6200315;23;20025;-83
2022/06/15 11:02:06;;;;;;;7.95;2.40;;;;;;;29.52;26.13;95614.63;6202251;23;20078;-82
2022/06/15 11:04:58;;;;;;;4.53;2.03;;;;;;;29.81;25.42;95637.38;6200032;23;20012;-83
2022/06/15 11:07:23;;;;;;;4.05;1.95;;;;;;;29.87;25.53;95635.81;6202341;23;20008;-83
2022/06/15 11:09:54;;;;;;;8.18;2.17;;;;;;;29.68;25.80;95634.19;6206116;23;20039;-82
2022/06/15 11:12:23;;;;;;;12.20;2.42;;;;;;;30.05;25.99;95628.50;6206819;23;20415;-83
2022/06/15 11:14:56;;;;;;;6.20;2.85;;;;;;;30.45;26.01;95623.81;6197807;23;20013;-83
2022/06/15 11:20:32;;;;;;;5.18;2.20;;;;;;;29.64;28.34;95583.44;6197365;23;20782;-84
2022/06/15 11:23:24;;;;;;;3.10;2.20;;;;;;;28.58;27.34;95409.78;6198736;23;20005;-83
2022/06/15 11:25:55;;;;;;;5.38;2.30;;;;;;;30.21;27.11;95576.16;6206792;23;20111;-84
2022/06/15 11:28:35;;;;;;;8.40;2.38;;;;;;;30.11;26.74;95613.25;6203530;23;20032;-84
2022/06/15 11:31:17;;;;;;;11.45;3.08;;;;;;;29.77;27.13;95614.69;6196383;23;20012;-84
2022/06/15 11:33:49;;;;;;;7.20;2.45;;;;;;;29.66;28.55;95608.44;6198313;23;20131;-83
2022/06/15 11:36:28;;;;;;;7.38;2.42;;;;;;;28.86;29.15;95610.34;6201428;23;20013;-84
2022/06/15 11:39:25;;;;;;;6.05;2.53;;;;;;;28.12;29.31;95585.94;6210025;23;20703;-83
2022/06/15 11:41:53;;;;;;;9.52;2.70;;;;;;;28.17;29.90;95612.88;6201395;23;20059;-83
2022/06/15 11:44:34;;;;;;;8.55;2.70;;;;;;;27.86;29.69;95595.03;6199868;23;20078;-82
2022/06/15 11:47:16;;;;;;;9.20;2.92;;;;;;;27.86;30.04;95609.44;6196173;23;20055;-83
2022/06/15 11:49:56;;;;;;;6.35;2.42;;;;;;;28.12;30.63;95605.81;6203245;23;20011;-83
2022/06/15 11:53:12;;;;;;;4.45;2.17;;;;;;;28.50;29.34;95601.88;6200756;23;20019;-83
2022/06/15 11:56:03;;;;;;;5.38;1.95;;;;;;;28.92;28.78;95600.63;6142973;23;20019;-84
2022/06/15 11:58:50;;;;;;;9.90;3.35;;;;;;;28.97;28.68;95609.25;6145332;23;20280;-84
2022/06/15 12:01:42;;;;;;;9.85;2.63;;;;;;;26.70;29.52;95314.88;6196999;23;20009;-84
2022/06/15 12:04:08;;;;;;;4.32;2.17;;;;;;;28.50;28.85;95598.38;6205026;23;20018;-84
2022/06/15 12:06:48;;;;;;;6.65;2.42;;;;;;;28.32;29.20;95596.25;6203779;23;20099;-84
2022/06/15 12:09:37;;;;;;;5.40;2.30;;;;;;;27.74;29.28;95503.44;6201579;23;20083;-85
2022/06/15 12:12:46;;;;;;;8.48;2.13;;;;;;;27.57;30.13;95600.16;6197412;23;20129;-84
2022/06/15 12:15:14;;;;;;;6.90;3.20;;;;;;;27.35;31.61;95590.16;6168573;23;20012;-84
2022/06/15 12:17:58;;;;;;;8.13;3.90;;;;;;;26.65;31.29;95471.03;6170441;23;20077;-84
2022/06/15 12:20:39;;;;;;;6.95;2.80;;;;;;;26.75;31.55;95508.50;6193445;23;20032;-84
2022/06/15 12:23:26;;;;;;;10.82;3.13;;;;;;;27.26;31.35;95592.38;6200137;23;20023;-84
2022/06/15 12:26:03;;;;;;;12.15;2.85;;;;;;;27.24;31.95;95590.00;6199229;23;20035;-84
2022/06/15 12:29:07;;;;;;;13.05;3.45;;;;;;;26.95;32.94;95592.72;6205490;23;20022;-84
2022/06/15 12:31:55;;;;;;;8.43;2.67;;;;;;;27.28;32.47;95584.63;6168537;23;20012;-84
2022/06/15 12:34:38;;;;;;;7.18;2.80;;;;;;;27.06;32.44;95548.19;6204789;23;20086;-84
2022/06/15 12:37:29;;;;;;;4.60;2.55;;;;;;;27.27;31.90;95581.13;6206383;23;20008;-84
2022/06/15 12:40:07;;;;;;;10.85;3.60;;;;;;;27.31;32.78;95578.44;6207003;23;20012;-84
2022/06/15 12:42:34;;;;;;;8.90;3.05;;;;;;;27.19;31.68;95533.16;6196412;23;20043;-84
2022/06/15 12:45:08;;;;;;;7.30;2.97;;;;;;;27.17;32.52;95576.31;6201960;23;20012;-84
2022/06/15 12:48:21;;;;;;;5.50;3.08;;;;;;;27.10;33.28;95578.16;6204690;23;20005;-84
2022/06/15 12:51:00;;;;;;;10.48;3.10;;;;;;;27.11;33.35;95547.84;6203129;23;20008;-85
2022/06/15 12:53:58;;;;;;;8.52;3.15;;;;;;;27.28;33.08;95568.28;6206273;23;20017;-84
2022/06/15 12:56:34;;;;;;;9.25;3.50;;;;;;;26.67;33.82;95478.84;6204057;23;20044;-85
2022/06/15 12:59:13;;;;;;;11.13;3.80;;;;;;;27.47;34.63;95570.81;6201916;23;20070;-83
2022/06/15 13:01:50;;;;;;;6.25;2.92;;;;;;;27.24;34.68;95511.03;6200475;23;20019;-84
2022/06/15 13:04:22;;;;;;;8.75;3.75;;;;;;;27.35;34.55;95513.13;6203110;23;20008;-84
2022/06/15 13:07:19;;;;;;;7.43;3.25;;;;;;;27.16;33.55;95519.50;6202778;23;20516;-84
2022/06/15 13:10:11;;;;;;;7.15;3.33;;;;;;;26.94;33.63;95483.09;6201482;23;20734;-83
2022/06/15 13:12:46;;;;;;;9.43;3.90;;;;;;;27.48;34.02;95544.38;6202421;23;20087;-84
2022/06/15 13:15:50;;;;;;;7.65;3.33;;;;;;;27.01;33.85;95498.72;6201922;23;20009;-84
2022/06/15 13:18:37;;;;;;;7.82;3.65;;;;;;;27.74;33.38;95568.03;6194440;23;20013;-84
2022/06/15 13:21:07;;;;;;;6.68;3.05;;;;;;;26.45;32.14;95336.38;6205337;23;20009;-84
2022/06/15 13:23:58;;;;;;;11.88;3.17;;;;;;;28.69;32.34;95568.88;6204032;23;20330;-84
2022/06/15 13:26:44;;;;;;;7.30;3.63;;;;;;;28.77;31.52;95547.88;6205988;23;20039;-84
2022/06/15 13:29:10;;;;;;;5.88;2.83;;;;;;;29.07;29.96;95564.03;6209061;23;20075;-84
2022/06/15 13:31:49;;;;;;;5.88;3.15;;;;;;;29.53;29.55;95551.38;6202563;23;20016;-84
2022/06/15 13:34:34;;;;;;;8.00;3.83;;;;;;;29.86;30.30;95557.72;6207873;23;20119;-84
2022/06/15 13:37:14;;;;;;;10.85;3.40;;;;;;;29.88;30.18;95556.16;6206558;23;20016;-85
2022/06/15 13:39:43;;;;;;;7.70;3.38;;;;;;;30.21;29.32;95555.03;6204386;23;20384;-84
2022/06/15 13:42:32;;;;;;;4.07;2.85;;;;;;;30.52;28.46;95528.84;6205846;23;20080;-84
2022/06/15 13:45:04;;;;;;;4.00;2.80;;;;;;;30.68;28.75;95534.69;6208240;23;20008;-84
2022/06/15 13:47:38;;;;;;;7.78;3.10;;;;;;;30.70;28.10;95545.25;6205751;23;20009;-84
2022/06/15 13:50:05;;;;;;;9.20;3.92;;;;;;;30.01;29.75;95553.06;6208902;23;20039;-85
2022/06/15 13:52:34;;;;;;;9.23;3.70;;;;;;;29.41;29.73;95447.13;6233998;23;20019;-83
2022/06/15 13:55:26;;;;;;;7.95;3.13;;;;;;;29.53;29.79;95542.41;6208903;23;20019;-84
2022/06/15 13:58:35;;;;;;;6.85;3.13;;;;;;;30.12;29.14;95549.19;6210266;23;20074;-84
2022/06/15 14:01:18;;;;;;;7.95;3.20;;;;;;;29.75;29.58;95549.47;6212308;23;20073;-84
2022/06/15 14:04:02;;;;;;;4.32;2.90;;;;;;;29.84;29.75;95562.78;6210840;23;20351;-84
2022/06/15 14:06:32;;;;;;;3.90;3.00;;;;;;;30.40;29.21;95558.56;6208905;23;20013;-85
2022/06/15 14:09:12;;;;;;;8.27;3.33;;;;;;;29.86;28.92;95553.03;6207646;23;20389;-85
2022/06/15 14:12:03;;;;;;;6.82;3.35;;;;;;;30.06;28.79;95506.22;6209558;23;20013;-85
2022/06/15 14:14:41;;;;;;;8.38;3.78;;;;;;;30.44;29.45;95545.66;6207286;23;20090;-84
2022/06/15 14:17:38;;;;;;;8.20;2.90;;;;;;;29.79;28.89;95557.69;6208662;23;20088;-84
2022/06/15 14:20:16;;;;;;;6.50;3.00;;;;;;;29.76;29.16;95559.25;6205795;23;20009;-84
2022/06/15 14:22:52;;;;;;;5.85;3.20;;;;;;;29.95;30.01;95560.88;6209794;23;20088;-84
2022/06/15 14:25:18;;;;;;;5.97;2.85;;;;;;;29.60;29.03;95553.34;6210008;23;20479;-83
2022/06/15 14:27:58;;;;;;;7.32;3.17;;;;;;;29.81;29.09;95528.81;6211828;23;20083;-84
2022/06/15 14:30:31;;;;;;;5.50;3.00;;;;;;;29.84;29.81;95551.84;6211982;23;20009;-84
2022/06/15 14:32:59;;;;;;;6.40;3.35;;;;;;;30.20;29.69;95500.72;6211498;23;20394;-85
2022/06/15 14:35:25;;;;;;;5.50;3.20;;;;;;;30.41;29.27;95517.13;6211166;23;20066;-84
2022/06/15 14:38:00;;;;;;;8.30;3.10;;;;;;;30.77;28.74;95541.72;6210385;23;20008;-83
2022/06/15 14:40:36;;;;;;;9.45;3.15;;;;;;;30.68;28.39;95545.66;6209737;23;20015;-85
2022/06/15 14:43:03;;;;;;;4.50;2.90;;;;;;;31.00;27.46;95512.72;6209408;23;20009;-84
2022/06/15 14:45:37;;;;;;;7.63;3.00;;;;;;;31.56;27.20;95512.88;6211667;23;20411;-84
2022/06/15 14:48:12;;;;;;;8.68;3.28;;;;;;;31.36;27.30;95416.66;6210816;23;20066;-84
2022/06/15 14:50:41;;;;;;;7.63;3.03;;;;;;;31.78;28.52;95506.91;6209423;23;20016;-84
2022/06/15 14:53:16;;;;;;;7.07;3.38;;;;;;;32.12;29.37;95537.19;6208629;23;20100;-84
2022/06/15 14:55:44;;;;;;;5.22;3.22;;;;;;;31.31;29.45;95439.03;6210897;23;20008;-84
2022/06/15 14:58:20;;;;;;;11.00;3.70;;;;;;;32.08;29.17;95472.56;6207920;23;20131;-84
2022/06/15 15:00:46;;;;;;;6.43;3.60;;;;;;;32.03;30.29;95482.03;6208393;23;20011;-83
2022/06/15 15:03:31;;;;;;;7.18;3.72;;;;;;;32.73;28.61;95523.03;6209410;23;20032;-83
2022/06/15 15:06:02;;;;;;;12.75;3.90;;;;;;;32.27;29.26;95526.16;6208438;23;20396;-84
2022/06/15 15:08:34;;;;;;;10.20;3.30;;;;;;;32.03;30.35;95527.88;6233138;23;20108;-84
2022/06/15 15:11:04;;;;;;;5.32;3.55;;;;;;;31.83;31.00;95491.97;6208178;23;20004;-84
2022/06/15 15:13:38;;;;;;;9.70;3.05;;;;;;;31.26;30.45;95516.16;6205906;23;20223;-83
2022/06/15 15:16:22;;;;;;;6.72;3.17;;;;;;;30.93;31.55;95537.38;6206025;23;20015;-84
2022/06/15 15:18:57;;;;;;;6.35;3.30;;;;;;;30.97;31.40;95458.72;6208488;23;20086;-83
2022/06/15 15:21:25;;;;;;;11.73;4.20;;;;;;;31.49;30.10;95532.09;6208232;23;20016;-84
2022/06/15 15:23:51;;;;;;;8.32;2.85;;;;;;;31.15;30.98;95466.88;6206916;23;20008;-83
2022/06/15 15:26:31;;;;;;;8.82;3.35;;;;;;;31.25;31.73;95500.91;6208724;23;20004;-84
2022/06/15 15:34:33;;;;;;;8.48;3.60;;;;;;;31.74;30.17;95517.09;6209076;23;20028;-84
2022/06/15 15:39:48;;;;;;;5.00;2.90;;;;;;;31.85;30.46;95522.50;6210573;23;20023;-84
2022/06/15 15:42:17;;;;;;;9.63;3.90;;;;;;;31.86;29.31;95524.06;6209846;23;20035;-83
2022/06/15 15:44:43;;;;;;;19.48;3.88;;;;;;;31.40;29.02;95483.22;6211878;23;20008;-84
2022/06/15 15:47:11;;;;;;;6.55;2.97;;;;;;;31.19;29.58;95518.94;6235940;23;20016;-83
2022/06/15 15:49:38;;;;;;;7.40;3.35;;;;;;;30.51;29.83;95508.16;6234158;23;20016;-84
2022/06/15 15:52:08;;;;;;;7.13;3.45;;;;;;;30.39;29.91;95489.38;6210239;23;20021;-83
2022/06/15 15:54:35;;;;;;;10.70;3.72;;;;;;;30.12;29.88;95431.56;6212404;23;20005;-83
2022/06/15 15:57:09;;;;;;;6.15;3.42;;;;;;;30.68;31.16;95523.75;6210383;23;20312;-83
2022/06/15 15:59:35;;;;;;;5.97;3.25;;;;;;;30.61;30.05;95432.66;6212309;23;20017;-83
2022/06/15 16:02:01;;;;;;;9.68;3.17;;;;;;;30.38;30.70;95487.81;6209848;23;20083;-84
2022/06/15 16:04:36;;;;;;;10.82;3.38;;;;;;;30.53;31.18;95527.69;6211267;23;20050;-84
2022/06/15 16:07:15;;;;;;;4.45;3.08;;;;;;;30.21;31.38;95466.75;6211518;23;20354;-84
2022/06/15 16:09:42;;;;;;;7.10;3.00;;;;;;;29.95;31.18;95481.59;6211816;23;20066;-84
2022/06/15 16:12:08;;;;;;;12.07;3.75;;;;;;;30.00;30.77;95415.56;6210826;23;20439;-83
2022/06/15 16:14:33;;;;;;;11.18;3.78;;;;;;;30.40;30.84;95460.84;6209618;23;20012;-84
2022/06/15 16:17:00;;;;;;;10.10;3.50;;;;;;;31.00;30.45;95474.38;6209832;23;20087;-84
2022/06/15 16:19:26;;;;;;;6.35;3.17;;;;;;;31.51;29.69;95503.09;6209633;23;20091;-84
2022/06/15 16:21:52;;;;;;;4.40;2.88;;;;;;;31.34;29.86;95512.22;6210401;23;20414;-83
2022/06/15 16:24:19;;;;;;;7.63;3.05;;;;;;;30.33;30.84;95438.19;6209830;23;20008;-84
2022/06/15 16:26:44;;;;;;;6.55;3.17;;;;;;;31.52;30.60;95529.34;6211812;23;20004;-85
2022/06/15 16:29:10;;;;;;;6.30;3.28;;;;;;;31.12;31.10;95470.44;6212119;23;20047;-83
2022/06/15 16:31:37;;;;;;;6.35;3.08;;;;;;;31.10;31.03;95463.78;6211485;23;20013;-84
2022/06/15 16:34:04;;;;;;;5.10;2.92;;;;;;;30.66;31.64;95438.53;6210277;23;20032;-84
2022/06/15 16:36:30;;;;;;;5.78;3.00;;;;;;;30.40;31.82;95446.38;6211909;23;20009;-84
2022/06/15 16:38:56;;;;;;;9.60;3.00;;;;;;;30.51;31.94;95471.81;6209859;23;20067;-82
2022/06/15 16:41:22;;;;;;;6.55;3.25;;;;;;;29.89;32.45;95461.25;6210649;23;20423;-83
2022/06/15 16:43:49;;;;;;;10.30;3.53;;;;;;;30.47;31.65;95479.97;6209226;23;20019;-83
2022/06/15 16:46:18;;;;;;;6.05;3.15;;;;;;;30.16;32.94;95505.41;6210095;23;20062;-83
2022/06/15 16:48:44;;;;;;;6.85;3.13;;;;;;;29.67;32.72;95457.72;6209198;23;20008;-84
2022/06/15 16:51:14;;;;;;;5.40;3.28;;;;;;;29.96;32.70;95496.03;6210976;23;20019;-82
2022/06/15 16:53:40;;;;;;;12.88;3.30;;;;;;;29.69;33.17;95504.56;6207914;23;20082;-82
2022/06/15 16:56:09;;;;;;;11.55;3.70;;;;;;;30.10;32.83;95543.31;6210169;23;20051;-82
2022/06/15 16:58:39;;;;;;;6.53;3.42;;;;;;;29.63;33.31;95510.81;6211551;23;20009;-83
2022/06/15 17:01:05;;;;;;;6.03;3.17;;;;;;;29.16;33.04;95477.09;6209801;23;20005;-84
2022/06/15 17:03:30;;;;;;;10.55;3.28;;;;;;;29.32;32.99;95496.66;6207817;23;20008;-83
2022/06/15 17:05:59;;;;;;;7.35;3.10;;;;;;;29.60;34.07;95552.59;6210832;23;20009;-82
2022/06/15 17:08:28;;;;;;;6.03;3.33;;;;;;;29.21;34.26;95484.94;6209450;23;20031;-83
2022/06/15 17:10:54;;;;;;;10.68;3.47;;;;;;;29.37;34.76;95520.13;6210724;23;20012;-83
2022/06/15 17:13:19;;;;;;;9.73;3.70;;;;;;;28.74;35.46;95494.84;6210579;23;20040;-84
2022/06/15 17:15:48;;;;;;;8.48;3.40;;;;;;;28.16;35.82;95455.88;6208991;23;20019;-84